createdAt,value
2017-06-23T00:02:12.406Z,99009.14
2017-06-23T00:04:40.797Z,99016.02
2017-06-23T00:07:09.106Z,99024.73
2017-06-23T00:09:37.043Z,99027.07
2017-06-23T00:12:05.314Z,99023.27
2017-06-23T00:14:33.017Z,99037.41
2017-06-23T00:17:01.023Z,99030.52
2017-06-23T00:19:29.007Z,99032.08
2017-06-23T00:21:57.191Z,99034.89
2017-06-23T00:24:25.877Z,99040.69
2017-06-23T00:26:53.714Z,99039.42
2017-06-23T00:29:22.000Z,99038.01
2017-06-23T00:31:50.413Z,99036.66
2017-06-23T00:34:18.307Z,99018.72
2017-06-23T00:36:46.363Z,99022.91
2017-06-23T00:39:15.342Z,99022.12
2017-06-23T00:41:43.198Z,99005.30
2017-06-23T00:44:11.583Z,98995.09
2017-06-23T00:46:40.087Z,98985.48
2017-06-23T00:49:08.384Z,98983.77
2017-06-23T00:51:35.900Z,98989.43
2017-06-23T00:54:05.006Z,99008.19
2017-06-23T00:56:32.709Z,99005.40
2017-06-23T00:59:01.367Z,99020.39
2017-06-23T01:01:29.536Z,99012.91
2017-06-23T01:03:57.422Z,98999.33
2017-06-23T01:06:25.632Z,99019.94
2017-06-23T01:08:53.720Z,99015.67
2017-06-23T01:11:21.533Z,99020.81
2017-06-23T01:13:49.308Z,99037.70
2017-06-23T01:16:17.607Z,99046.64
2017-06-23T01:18:45.939Z,99053.36
2017-06-23T01:21:14.624Z,99041.66
2017-06-23T01:23:42.486Z,99034.86
2017-06-23T01:26:10.667Z,99039.02
2017-06-23T01:28:39.831Z,99047.78
2017-06-23T01:31:08.438Z,99058.87
2017-06-23T01:33:35.900Z,99067.75
2017-06-23T01:36:04.450Z,99103.77
2017-06-23T01:38:32.464Z,99170.01
2017-06-23T01:41:00.388Z,99211.00
2017-06-23T01:43:28.943Z,99189.62
2017-06-23T01:45:57.389Z,99194.91
2017-06-23T01:48:25.456Z,99207.27
2017-06-23T01:50:54.023Z,99237.88
2017-06-23T01:53:22.126Z,99246.52
2017-06-23T01:55:49.834Z,99284.48
2017-06-23T01:58:18.070Z,99264.56
2017-06-23T02:00:46.243Z,99270.02
2017-06-23T02:03:13.787Z,99282.06
2017-06-23T02:05:41.591Z,99414.94
2017-06-23T02:08:09.342Z,99476.27
2017-06-23T02:10:37.382Z,99467.39
2017-06-23T02:13:05.680Z,99425.84
2017-06-23T02:15:33.299Z,99371.95
2017-06-23T02:18:01.005Z,99392.83
2017-06-23T02:20:29.026Z,99362.11
2017-06-23T02:22:57.710Z,99342.06
2017-06-23T02:25:26.046Z,99329.64
2017-06-23T02:27:53.811Z,99330.05
2017-06-23T02:30:21.579Z,99348.58
2017-06-23T02:32:49.399Z,99330.81
2017-06-23T02:35:17.414Z,99290.89
2017-06-23T02:37:44.898Z,99250.83
2017-06-23T02:40:12.466Z,99207.94
2017-06-23T02:42:40.211Z,99156.40
2017-06-23T02:45:08.232Z,99112.89
2017-06-23T02:47:36.107Z,99166.30
2017-06-23T02:50:04.496Z,99168.98
2017-06-23T02:52:33.446Z,99167.41
2017-06-23T02:55:01.263Z,99190.23
2017-06-23T02:57:29.364Z,99224.49
2017-06-23T02:59:57.112Z,99209.40
2017-06-23T03:02:26.316Z,99220.88
2017-06-23T03:04:55.003Z,99205.59
2017-06-23T03:07:23.182Z,99190.91
2017-06-23T03:09:50.808Z,99189.45
2017-06-23T03:12:18.618Z,99221.10
2017-06-23T03:14:46.324Z,99241.63
2017-06-23T03:17:14.206Z,99241.84
2017-06-23T03:19:41.855Z,99232.02
2017-06-23T03:22:10.181Z,99223.15
2017-06-23T03:24:37.866Z,99223.55
2017-06-23T03:27:05.623Z,99223.47
2017-06-23T03:29:33.512Z,99221.89
2017-06-23T03:32:01.239Z,99219.09
2017-06-23T03:34:29.115Z,99221.26
2017-06-23T03:36:57.590Z,99227.04
2017-06-23T03:39:26.066Z,99223.13
2017-06-23T03:41:54.235Z,99222.63
2017-06-23T03:44:21.876Z,99226.63
2017-06-23T03:46:49.376Z,99233.38
2017-06-23T03:49:17.607Z,99241.52
2017-06-23T03:51:45.715Z,99237.20
2017-06-23T03:54:13.325Z,99235.76
2017-06-23T03:56:41.246Z,99238.33
2017-06-23T03:59:08.912Z,99244.44
2017-06-23T04:01:38.423Z,99236.14
2017-06-23T04:04:07.098Z,99239.77
2017-06-23T04:06:35.187Z,99236.06
2017-06-23T04:09:02.847Z,99235.12
2017-06-23T04:11:30.323Z,99224.81
2017-06-23T04:13:57.834Z,99226.03
2017-06-23T04:16:25.827Z,99235.44
2017-06-23T04:18:53.502Z,99229.57
2017-06-23T04:21:21.095Z,99215.70
2017-06-23T04:23:48.800Z,99221.80
2017-06-23T04:26:16.574Z,99203.84
2017-06-23T04:28:44.076Z,99205.59
2017-06-23T04:31:12.419Z,99214.06
2017-06-23T04:33:40.799Z,99213.74
2017-06-23T04:36:09.077Z,99217.48
2017-06-23T04:38:37.401Z,99224.29
2017-06-23T04:41:05.349Z,99218.30
2017-06-23T04:43:33.196Z,99219.94
2017-06-23T04:46:01.060Z,99215.38
2017-06-23T04:48:29.843Z,99214.48
2017-06-23T04:50:57.511Z,99214.56
2017-06-23T04:53:25.575Z,99220.64
2017-06-23T04:55:53.447Z,99221.28
2017-06-23T04:58:21.116Z,99224.79
2017-06-23T05:00:48.884Z,99225.29
2017-06-23T05:03:16.652Z,99223.73
2017-06-23T05:05:44.456Z,99236.15
2017-06-23T05:08:13.195Z,99235.22
2017-06-23T05:10:41.171Z,99230.25
2017-06-23T05:13:08.714Z,99232.85
2017-06-23T05:15:36.456Z,99226.84
2017-06-23T05:18:04.879Z,99230.55
2017-06-23T05:20:32.596Z,99230.14
2017-06-23T05:23:00.459Z,99233.94
2017-06-23T05:25:28.375Z,99220.62
2017-06-23T05:27:56.160Z,99218.05
2017-06-23T05:30:23.674Z,99213.81
2017-06-23T05:32:51.476Z,99218.02
2017-06-23T05:35:19.536Z,99222.81
2017-06-23T05:37:47.786Z,99222.78
2017-06-23T05:40:15.864Z,99195.80
2017-06-23T05:42:43.432Z,99181.13
2017-06-23T05:45:11.210Z,99169.86
2017-06-23T05:47:39.497Z,99117.75
2017-06-23T05:50:07.260Z,99094.30
2017-06-23T05:52:34.771Z,99129.84
2017-06-23T05:55:02.875Z,99158.78
2017-06-23T05:57:30.556Z,99165.50
2017-06-23T05:59:58.068Z,99163.67
2017-06-23T06:02:26.840Z,99162.00
2017-06-23T06:04:54.871Z,99170.27
2017-06-23T06:07:23.491Z,99209.84
2017-06-23T06:09:51.839Z,99230.61
2017-06-23T06:12:19.915Z,99226.67
2017-06-23T06:14:47.809Z,99213.14
2017-06-23T06:17:15.294Z,99226.26
2017-06-23T06:19:43.536Z,99255.41
2017-06-23T06:22:11.558Z,99257.25
2017-06-23T06:24:39.967Z,99264.18
2017-06-23T06:27:08.346Z,99231.72
2017-06-23T06:29:36.211Z,99201.05
2017-06-23T06:32:04.086Z,99183.70
2017-06-23T06:34:31.654Z,99185.05
2017-06-23T06:37:00.442Z,99209.55
2017-06-23T06:39:28.037Z,99195.62
2017-06-23T06:41:55.943Z,99201.22
2017-06-23T06:44:24.295Z,99206.25
2017-06-23T06:46:52.486Z,99183.73
2017-06-23T06:49:20.178Z,99201.11
2017-06-23T06:51:48.048Z,99208.94
2017-06-23T06:54:16.531Z,99281.40
2017-06-23T06:56:44.101Z,99287.39
2017-06-23T06:59:12.051Z,99221.38
2017-06-23T07:01:40.442Z,99226.75
2017-06-23T07:04:08.825Z,99259.60
2017-06-23T07:06:36.924Z,99202.89
2017-06-23T07:09:05.377Z,99204.55
2017-06-23T07:11:33.499Z,99214.88
2017-06-23T07:14:01.932Z,99197.20
2017-06-23T07:16:30.359Z,99203.30
2017-06-23T07:18:58.511Z,99220.94
2017-06-23T07:21:27.378Z,99141.70
2017-06-23T07:23:55.856Z,99186.03
2017-06-23T07:26:24.134Z,99174.50
2017-06-23T07:28:52.216Z,99176.78
2017-06-23T07:31:20.900Z,99176.66
2017-06-23T07:33:49.583Z,99180.90
2017-06-23T07:36:17.347Z,99180.25
2017-06-23T07:38:46.194Z,99177.33
2017-06-23T07:41:14.726Z,99171.44
2017-06-23T07:43:43.104Z,99176.38
2017-06-23T07:46:11.504Z,99179.47
2017-06-23T07:48:40.783Z,99171.70
2017-06-23T07:51:09.174Z,99172.92
2017-06-23T07:53:37.033Z,99178.27
2017-06-23T07:56:04.697Z,99179.20
2017-06-23T07:58:32.817Z,99175.66
2017-06-23T08:01:00.949Z,99180.51
2017-06-23T08:03:28.703Z,99178.55
2017-06-23T08:05:56.212Z,99180.18
2017-06-23T08:08:24.123Z,99186.86
2017-06-23T08:10:51.898Z,99194.20
2017-06-23T08:13:19.655Z,99196.48
2017-06-23T08:15:47.208Z,99199.78
2017-06-23T08:18:14.643Z,99200.80
2017-06-23T08:20:43.005Z,99202.67
2017-06-23T08:23:10.767Z,99195.22
2017-06-23T08:25:38.652Z,99201.41
2017-06-23T08:28:06.759Z,99203.16
2017-06-23T08:30:34.993Z,99199.98
2017-06-23T08:33:02.813Z,99203.78
2017-06-23T08:35:30.514Z,99204.39
2017-06-23T08:37:58.662Z,99207.80
2017-06-23T08:40:26.404Z,99210.05
2017-06-23T08:42:55.079Z,99208.38
2017-06-23T08:45:23.404Z,99213.27
2017-06-23T08:47:51.267Z,99215.23
2017-06-23T08:50:19.666Z,99221.73
2017-06-23T08:52:47.942Z,99216.31
2017-06-23T08:55:16.966Z,99224.75
2017-06-23T08:57:45.274Z,99220.39
2017-06-23T09:00:13.398Z,99225.48
2017-06-23T09:02:41.708Z,99231.42
2017-06-23T09:05:09.805Z,99207.85
2017-06-23T09:07:38.540Z,99180.27
2017-06-23T09:10:06.372Z,99232.82
2017-06-23T09:12:34.014Z,99236.72
2017-06-23T09:15:01.486Z,99204.64
2017-06-23T09:17:30.034Z,99240.14
2017-06-23T09:19:57.747Z,99244.29
2017-06-23T09:22:25.359Z,99240.84
2017-06-23T09:24:52.807Z,99242.62
2017-06-23T09:27:20.370Z,99239.84
2017-06-23T09:29:48.180Z,99238.08
2017-06-23T09:32:15.752Z,99231.41
2017-06-23T09:34:43.231Z,99234.57
2017-06-23T09:37:11.131Z,99228.19
2017-06-23T09:39:38.817Z,99224.72
2017-06-23T09:42:06.916Z,99220.65
2017-06-23T09:44:35.650Z,99222.98
2017-06-23T09:47:04.300Z,99217.77
2017-06-23T09:49:31.740Z,99217.78
2017-06-23T09:51:59.489Z,99218.27
2017-06-23T09:54:27.991Z,99218.11
2017-06-23T09:56:57.197Z,99224.16
2017-06-23T09:59:26.135Z,99222.67
2017-06-23T10:01:54.893Z,99216.59
2017-06-23T10:04:22.994Z,99213.21
2017-06-23T10:06:51.428Z,99212.84
2017-06-23T10:09:19.192Z,99205.66
2017-06-23T10:11:47.237Z,99208.09
2017-06-23T10:14:15.495Z,99203.42
2017-06-23T10:16:44.012Z,99206.21
2017-06-23T10:19:12.485Z,99205.48
2017-06-23T10:21:40.770Z,99202.59
2017-06-23T10:24:11.300Z,99202.94
2017-06-23T10:26:39.151Z,99206.04
2017-06-23T10:29:07.896Z,99194.13
2017-06-23T10:31:35.823Z,99199.23
2017-06-23T10:34:04.275Z,99185.03
2017-06-23T10:36:32.687Z,99181.20
2017-06-23T10:39:00.952Z,99177.88
2017-06-23T10:41:28.878Z,99178.82
2017-06-23T10:43:57.105Z,99180.98
2017-06-23T10:46:25.184Z,99183.05
2017-06-23T10:48:53.559Z,99179.36
2017-06-23T10:51:21.427Z,99168.52
2017-06-23T10:53:49.503Z,99171.72
2017-06-23T10:56:17.039Z,99171.97
2017-06-23T10:58:46.014Z,99164.88
2017-06-23T11:01:14.635Z,99160.01
2017-06-23T11:03:43.819Z,99159.66
2017-06-23T11:06:13.236Z,99151.41
2017-06-23T11:08:42.139Z,99154.64
2017-06-23T11:11:10.046Z,99149.63
2017-06-23T11:13:38.497Z,99159.66
2017-06-23T11:16:08.195Z,99144.83
2017-06-23T11:18:36.775Z,99140.34
2017-06-23T11:21:04.846Z,99148.98
2017-06-23T11:23:32.539Z,99149.63
2017-06-23T11:26:00.280Z,99142.26
2017-06-23T11:28:29.981Z,99139.84
2017-06-23T11:30:59.119Z,99144.70
2017-06-23T11:33:26.578Z,99151.24
2017-06-23T11:35:54.888Z,99156.02
2017-06-23T11:38:23.505Z,99154.64
2017-06-23T11:40:50.984Z,99156.44
2017-06-23T11:43:19.064Z,99151.39
2017-06-23T11:45:47.315Z,99148.63
2017-06-23T11:48:16.415Z,99144.34
2017-06-23T11:50:45.315Z,99146.44
2017-06-23T11:53:13.514Z,99150.14
2017-06-23T11:55:41.541Z,99147.37
2017-06-23T11:58:09.422Z,99156.78
2017-06-23T12:00:37.412Z,99144.21
2017-06-23T12:03:05.531Z,99144.74
2017-06-23T12:05:33.135Z,99149.66
2017-06-23T12:08:01.196Z,99152.02
2017-06-23T12:10:29.930Z,99149.63
2017-06-23T12:13:00.072Z,99154.59
2017-06-23T12:15:27.981Z,99154.27
2017-06-23T12:17:56.350Z,99155.91
2017-06-23T12:20:24.637Z,99153.55
2017-06-23T12:22:52.593Z,99162.79
2017-06-23T12:25:20.977Z,99158.91
2017-06-23T12:27:49.062Z,99161.02
2017-06-23T12:30:17.202Z,99156.27
2017-06-23T12:32:45.054Z,99165.08
2017-06-23T12:35:12.976Z,99164.66
2017-06-23T12:37:41.247Z,99165.08
2017-06-23T12:40:09.223Z,99177.88
2017-06-23T12:42:37.397Z,99176.52
2017-06-23T12:45:07.014Z,99179.38
2017-06-23T12:47:34.758Z,99172.41
2017-06-23T12:50:03.045Z,99168.91
2017-06-23T12:52:30.498Z,99167.67
2017-06-23T12:54:58.635Z,99165.67
2017-06-23T12:57:26.423Z,99165.78
2017-06-23T12:59:54.475Z,99159.11
2017-06-23T13:02:22.954Z,99161.00
2017-06-23T13:04:50.792Z,99155.22
2017-06-23T13:07:18.328Z,99153.29
2017-06-23T13:09:47.080Z,99151.77
2017-06-23T13:12:15.182Z,99152.70
2017-06-23T13:14:43.435Z,99145.38
2017-06-23T13:17:11.267Z,99138.91
2017-06-23T13:19:39.091Z,99148.27
2017-06-23T13:22:07.042Z,99142.32
2017-06-23T13:24:35.337Z,99138.19
2017-06-23T13:27:02.900Z,99135.97
2017-06-23T13:29:31.395Z,99141.11
2017-06-23T13:31:59.246Z,99133.14
2017-06-23T13:34:28.011Z,99136.34
2017-06-23T13:36:56.164Z,99137.97
2017-06-23T13:39:23.916Z,99129.50
2017-06-23T13:41:51.699Z,99134.55
2017-06-23T13:44:19.211Z,99131.39
2017-06-23T13:46:48.607Z,99136.25
2017-06-23T13:49:17.607Z,99130.31
2017-06-23T13:51:45.463Z,99125.63
2017-06-23T13:54:14.008Z,99131.52
2017-06-23T13:56:41.844Z,99132.42
2017-06-23T13:59:09.588Z,99138.55
2017-06-23T14:01:40.212Z,99143.69
2017-06-23T14:04:07.983Z,99145.04
2017-06-23T14:06:36.307Z,99144.36
2017-06-23T14:09:04.226Z,99146.47
2017-06-23T14:11:32.934Z,99149.27
2017-06-23T14:14:01.907Z,99138.91
2017-06-23T14:16:29.908Z,99140.58
2017-06-23T14:18:57.717Z,99139.59
2017-06-23T14:21:25.523Z,99146.06
2017-06-23T14:23:53.881Z,99152.55
2017-06-23T14:26:22.474Z,99150.61
2017-06-23T14:28:50.607Z,99154.07
2017-06-23T14:31:18.392Z,99156.88
2017-06-23T14:33:46.053Z,99163.17
2017-06-23T14:36:14.508Z,99162.41
2017-06-23T14:38:42.314Z,99155.78
2017-06-23T14:41:10.401Z,99145.61
2017-06-23T14:43:38.392Z,99152.54
2017-06-23T14:46:05.971Z,99150.78
2017-06-23T14:48:34.532Z,99149.84
2017-06-23T14:51:02.052Z,99147.95
2017-06-23T14:53:29.917Z,99146.33
2017-06-23T14:55:57.519Z,99145.25
2017-06-23T14:58:25.425Z,99149.61
2017-06-23T15:00:53.446Z,99142.55
2017-06-23T15:03:21.831Z,99139.98
2017-06-23T15:05:50.204Z,99131.47
2017-06-23T15:08:18.065Z,99124.45
2017-06-23T15:10:46.251Z,99128.63
2017-06-23T15:13:15.139Z,99123.23
2017-06-23T15:15:42.898Z,99116.75
2017-06-23T15:18:10.978Z,99112.47
2017-06-23T15:20:39.080Z,99112.66
2017-06-23T15:23:06.600Z,99109.81
2017-06-23T15:25:35.091Z,99109.95
2017-06-23T15:28:03.167Z,99107.96
2017-06-23T15:30:30.774Z,99106.35
2017-06-23T15:32:59.002Z,99100.95
2017-06-23T15:35:26.768Z,99096.53
2017-06-23T15:37:54.536Z,99094.64
2017-06-23T15:40:22.715Z,99094.77
2017-06-23T15:42:50.367Z,99099.23
2017-06-23T15:45:18.406Z,99092.89
2017-06-23T15:47:47.000Z,99093.83
2017-06-23T15:50:14.994Z,99094.55
2017-06-23T15:52:43.376Z,99101.58
2017-06-23T15:55:11.351Z,99107.70
2017-06-23T15:57:40.123Z,99097.70
2017-06-23T16:00:08.943Z,99094.46
2017-06-23T16:02:36.769Z,99095.72
2017-06-23T16:05:04.558Z,99096.85
2017-06-23T16:07:32.102Z,99094.05
2017-06-23T16:09:59.570Z,99094.00
2017-06-23T16:12:27.535Z,99096.94
2017-06-23T16:14:56.026Z,99096.30
2017-06-23T16:17:24.099Z,99104.81
2017-06-23T16:19:51.786Z,99103.82
2017-06-23T16:22:19.930Z,99100.81
2017-06-23T16:24:48.527Z,99100.71
2017-06-23T16:27:16.072Z,99103.23
2017-06-23T16:29:44.462Z,99106.22
2017-06-23T16:32:12.455Z,99106.22
2017-06-23T16:34:41.123Z,99103.34
2017-06-23T16:37:09.293Z,99103.34
2017-06-23T16:39:37.677Z,99103.88
2017-06-23T16:42:06.875Z,99106.58
2017-06-23T16:44:35.692Z,99101.71
2017-06-23T16:47:03.943Z,99108.64
2017-06-23T16:49:32.167Z,99109.18
2017-06-23T16:52:00.087Z,99115.80
2017-06-23T16:54:28.423Z,99116.21
2017-06-23T16:56:56.846Z,99119.55
2017-06-23T16:59:25.030Z,99125.13
2017-06-23T17:01:52.784Z,99131.89
2017-06-23T17:04:20.257Z,99134.59
2017-06-23T17:06:48.007Z,99143.23
2017-06-23T17:09:16.570Z,99147.16
2017-06-23T17:11:44.974Z,99148.91
2017-06-23T17:14:13.434Z,99149.35
2017-06-23T17:16:41.432Z,99159.80
2017-06-23T17:19:08.987Z,99166.30
2017-06-23T17:21:37.576Z,99171.88
2017-06-23T17:24:06.059Z,99187.05
2017-06-23T17:26:33.951Z,99188.15
2017-06-23T17:29:01.480Z,99197.20
2017-06-23T17:31:29.062Z,99201.66
2017-06-23T17:33:58.033Z,99205.31
2017-06-23T17:36:26.503Z,99215.77
2017-06-23T17:38:55.102Z,99216.58
2017-06-23T17:41:23.075Z,99217.93
2017-06-23T17:43:50.843Z,99221.03
2017-06-23T17:46:19.630Z,99222.92
2017-06-23T17:48:47.940Z,99228.45
2017-06-23T17:51:16.896Z,99233.86
2017-06-23T17:53:44.581Z,99233.86
2017-06-23T17:56:13.758Z,99237.52
2017-06-23T17:58:42.963Z,99235.45
2017-06-23T18:01:10.729Z,99242.51
2017-06-23T18:03:38.374Z,99241.97
2017-06-23T18:06:06.346Z,99249.27
2017-06-23T18:08:34.576Z,99256.97
2017-06-23T18:11:02.712Z,99257.73
2017-06-23T18:13:31.092Z,99259.90
2017-06-23T18:15:59.444Z,99263.01
2017-06-23T18:18:27.762Z,99269.36
2017-06-23T18:20:56.231Z,99273.81
2017-06-23T18:23:24.743Z,99276.11
2017-06-23T18:25:52.738Z,99281.80
2017-06-23T18:28:21.159Z,99288.96
2017-06-23T18:30:48.993Z,99289.33
2017-06-23T18:33:17.407Z,99294.53
2017-06-23T18:35:46.288Z,99275.27
2017-06-23T18:38:14.374Z,99296.02
2017-06-23T18:40:41.874Z,99290.25
2017-06-23T18:43:10.038Z,99301.17
2017-06-23T18:45:38.065Z,99308.23
2017-06-23T18:48:06.191Z,99312.88
2017-06-23T18:50:34.837Z,99321.47
2017-06-23T18:53:02.295Z,99320.23
2017-06-23T18:55:30.273Z,99320.75
2017-06-23T18:57:57.814Z,99323.39
2017-06-23T19:00:25.624Z,99329.65
2017-06-23T19:02:53.415Z,99337.34
2017-06-23T19:05:21.907Z,99336.66
2017-06-23T19:07:49.967Z,99345.16
2017-06-23T19:10:18.470Z,99360.13
2017-06-23T19:12:46.038Z,99366.98
2017-06-23T19:15:14.156Z,99371.22
2017-06-23T19:17:41.955Z,99385.09
2017-06-23T19:20:09.991Z,99385.94
2017-06-23T19:22:38.250Z,99396.91
2017-06-23T19:25:05.925Z,99409.31
2017-06-23T19:27:33.622Z,99416.79
2017-06-23T19:30:02.367Z,99423.81
2017-06-23T19:32:30.572Z,99432.94
2017-06-23T19:34:58.676Z,99404.42
2017-06-23T19:37:26.786Z,99446.56
2017-06-23T19:39:54.571Z,99449.58
2017-06-23T19:42:22.618Z,99453.05
2017-06-23T19:44:50.374Z,99457.16
2017-06-23T19:47:18.368Z,99455.69
2017-06-23T19:49:46.431Z,99455.52
2017-06-23T19:52:14.361Z,99465.66
2017-06-23T19:54:42.274Z,99462.06
2017-06-23T19:57:10.055Z,99462.94
2017-06-23T19:59:37.926Z,99464.58
2017-06-23T20:02:05.417Z,99464.55
2017-06-23T20:04:34.107Z,99469.45
2017-06-23T20:07:02.740Z,99472.29
2017-06-23T20:09:30.227Z,99483.03
2017-06-23T20:11:57.948Z,99488.81
2017-06-23T20:14:25.988Z,99492.21
2017-06-23T20:16:55.015Z,99490.92
2017-06-23T20:19:22.815Z,99496.61
2017-06-23T20:21:50.787Z,99493.55
2017-06-23T20:24:18.614Z,99499.00
2017-06-23T20:26:47.111Z,99504.69
2017-06-23T20:29:15.490Z,99513.50
2017-06-23T20:31:43.872Z,99513.00
2017-06-23T20:34:12.751Z,99513.85
2017-06-23T20:36:40.363Z,99513.69
2017-06-23T20:39:08.799Z,99516.55
2017-06-23T20:41:37.495Z,99519.00
2017-06-23T20:44:06.103Z,99517.64
2017-06-23T20:46:34.752Z,99524.92
2017-06-23T20:49:02.919Z,99533.30
2017-06-23T20:51:30.908Z,99535.00
2017-06-23T20:53:59.480Z,99538.10
2017-06-23T20:56:28.283Z,99537.57
2017-06-23T20:58:57.116Z,99541.41
2017-06-23T21:01:25.301Z,99539.65
2017-06-23T21:03:53.058Z,99549.14
2017-06-23T21:06:21.390Z,99548.86
2017-06-23T21:08:49.162Z,99554.09
2017-06-23T21:11:18.086Z,99557.19
2017-06-23T21:13:46.332Z,99561.03
2017-06-23T21:16:14.959Z,99554.89
2017-06-23T21:18:42.884Z,99556.91
2017-06-23T21:21:10.735Z,99560.63
2017-06-23T21:23:38.772Z,99561.22
2017-06-23T21:26:07.096Z,99565.08
2017-06-23T21:28:35.783Z,99563.14
2017-06-23T21:31:03.946Z,99566.42
2017-06-23T21:33:32.339Z,99570.89
2017-06-23T21:36:00.311Z,99573.04
2017-06-23T21:38:29.379Z,99570.33
2017-06-23T21:41:09.411Z,99568.52
2017-06-23T21:43:37.280Z,99565.06
2017-06-23T21:46:04.987Z,99560.82
2017-06-23T21:48:33.249Z,99566.61
2017-06-23T21:51:01.729Z,99567.20
2017-06-23T21:53:29.723Z,99573.09
2017-06-23T21:55:57.278Z,99571.78
2017-06-23T21:58:25.014Z,99573.96
2017-06-23T22:00:52.819Z,99575.73
2017-06-23T22:03:21.599Z,99579.83
2017-06-23T22:05:50.496Z,99578.41
2017-06-23T22:08:18.976Z,99579.73
2017-06-23T22:10:47.400Z,99578.02
2017-06-23T22:13:16.038Z,99578.92
2017-06-23T22:15:44.108Z,99579.45
2017-06-23T22:18:11.786Z,99583.83
2017-06-23T22:20:39.952Z,99587.28
2017-06-23T22:23:09.635Z,99591.59
2017-06-23T22:25:37.227Z,99598.71
2017-06-23T22:28:05.231Z,99598.33
2017-06-23T22:30:34.363Z,99595.44
2017-06-23T22:33:02.751Z,99594.94
2017-06-23T22:35:31.054Z,99598.50
2017-06-23T22:37:59.020Z,99601.41
2017-06-23T22:40:28.288Z,99604.33
2017-06-23T22:42:56.389Z,99603.52
2017-06-23T22:45:25.451Z,99602.70
2017-06-23T22:47:53.815Z,99601.17
2017-06-23T22:50:22.552Z,99600.47
2017-06-23T22:52:50.008Z,99608.86
2017-06-23T22:55:19.070Z,99605.05
2017-06-23T22:57:48.262Z,99605.59
2017-06-23T23:00:17.132Z,99608.00
2017-06-23T23:02:46.232Z,99613.20
2017-06-23T23:05:14.645Z,99609.27
2017-06-23T23:07:42.779Z,99611.86
2017-06-23T23:10:11.337Z,99608.77
2017-06-23T23:12:40.330Z,99613.13
2017-06-23T23:15:08.649Z,99617.89
2017-06-23T23:17:36.626Z,99618.69
2017-06-23T23:20:04.460Z,99622.64
2017-06-23T23:22:32.555Z,99630.30
2017-06-23T23:25:00.799Z,99624.09
2017-06-23T23:27:29.179Z,99625.95
2017-06-23T23:29:56.945Z,99626.98
2017-06-23T23:32:25.018Z,99633.71
2017-06-23T23:34:52.802Z,99628.33
2017-06-23T23:37:21.164Z,99634.02
2017-06-23T23:39:49.540Z,99636.36
2017-06-23T23:42:17.823Z,99640.72
2017-06-23T23:44:46.795Z,99643.49
2017-06-23T23:47:14.987Z,99642.91
2017-06-23T23:49:44.730Z,99641.85
2017-06-23T23:52:12.963Z,99642.16
2017-06-23T23:54:41.342Z,99631.19
2017-06-23T23:57:09.978Z,99639.78
2017-06-23T23:59:39.078Z,99645.90
